createdAt,value
2022-12-14T00:03:22.120Z,7.13
2022-12-14T00:08:24.448Z,9.88
2022-12-14T00:18:28.902Z,9.00
2022-12-14T00:23:37.151Z,9.45
2022-12-14T00:28:40.793Z,9.73
2022-12-14T00:33:42.738Z,9.82
2022-12-14T00:38:44.670Z,10.80
2022-12-14T00:43:49.391Z,11.25
2022-12-14T00:48:51.850Z,7.95
2022-12-14T00:53:53.729Z,10.52
2022-12-14T00:58:55.578Z,10.45
2022-12-14T01:03:57.691Z,11.00
2022-12-14T01:08:59.535Z,10.85
2022-12-14T01:14:01.429Z,11.18
2022-12-14T01:19:03.349Z,8.98
2022-12-14T01:24:05.529Z,14.65
2022-12-14T01:29:07.516Z,12.02
2022-12-14T01:34:09.831Z,12.73
2022-12-14T01:39:13.507Z,11.23
2022-12-14T01:44:15.213Z,11.15
2022-12-14T01:49:30.504Z,12.23
2022-12-14T01:54:32.574Z,10.23
2022-12-14T01:59:35.833Z,13.38
2022-12-14T02:04:39.885Z,11.35
2022-12-14T02:09:41.957Z,13.20
2022-12-14T02:14:43.828Z,13.43
2022-12-14T02:19:45.743Z,16.67
2022-12-14T02:25:06.824Z,14.32
2022-12-14T02:30:19.824Z,11.18
2022-12-14T02:40:57.965Z,12.15
2022-12-14T02:46:29.741Z,12.88
2022-12-14T02:51:37.264Z,13.77
2022-12-14T02:56:47.904Z,16.60
2022-12-14T03:01:50.468Z,14.68
2022-12-14T03:06:59.108Z,14.60
2022-12-14T03:12:07.213Z,13.77
2022-12-14T03:17:24.012Z,14.35
2022-12-14T03:22:33.028Z,15.70
2022-12-14T03:27:40.613Z,15.45
2022-12-14T03:32:54.005Z,13.07
2022-12-14T03:38:18.576Z,14.32
2022-12-14T03:43:28.117Z,16.58
2022-12-14T03:48:38.260Z,14.40
2022-12-14T03:53:50.015Z,16.35
2022-12-14T03:59:17.798Z,16.48
2022-12-14T04:04:23.554Z,14.25
2022-12-14T04:09:33.385Z,14.55
2022-12-14T04:14:37.439Z,17.40
2022-12-14T04:19:57.134Z,16.00
2022-12-14T04:25:11.101Z,14.38
2022-12-14T04:30:13.134Z,11.35
2022-12-14T04:35:31.055Z,14.48
2022-12-14T04:40:35.557Z,17.10
2022-12-14T04:45:42.346Z,14.50
2022-12-14T04:50:51.112Z,17.58
2022-12-14T04:56:00.975Z,15.65
2022-12-14T05:01:23.645Z,14.27
2022-12-14T05:07:00.762Z,14.18
2022-12-14T05:12:37.200Z,13.05
2022-12-14T05:17:39.492Z,13.02
2022-12-14T05:22:41.298Z,11.77
2022-12-14T05:27:43.113Z,13.30
2022-12-14T05:32:44.951Z,16.17
2022-12-14T05:37:46.840Z,13.13
2022-12-14T05:42:55.753Z,14.57
2022-12-14T05:47:57.830Z,15.98
2022-12-14T05:52:59.667Z,11.00
2022-12-14T05:58:01.563Z,14.68
2022-12-14T06:03:03.412Z,13.23
2022-12-14T06:08:05.553Z,16.20
2022-12-14T06:13:07.343Z,14.02
2022-12-14T06:18:09.402Z,14.80
2022-12-14T06:23:11.249Z,14.90
2022-12-14T06:28:13.141Z,14.57
2022-12-14T06:33:15.033Z,17.02
2022-12-14T06:38:16.936Z,18.08
2022-12-14T06:43:18.868Z,15.20
2022-12-14T06:48:20.763Z,13.30
2022-12-14T06:53:22.927Z,17.07
2022-12-14T06:58:29.408Z,16.63
2022-12-14T07:03:34.491Z,16.92
2022-12-14T07:08:37.697Z,16.85
2022-12-14T07:13:39.524Z,15.48
2022-12-14T07:18:41.358Z,19.93
2022-12-14T07:23:44.139Z,17.70
2022-12-14T07:28:46.042Z,16.08
2022-12-14T07:33:48.232Z,16.70
2022-12-14T07:38:50.229Z,17.70
2022-12-14T07:43:52.324Z,19.10
2022-12-14T07:48:55.204Z,19.33
2022-12-14T07:53:57.203Z,18.30
2022-12-14T07:58:59.331Z,17.90
2022-12-14T08:04:06.006Z,20.08
2022-12-14T08:09:08.271Z,20.67
2022-12-14T08:14:15.374Z,17.77
2022-12-14T08:19:18.140Z,20.40
2022-12-14T08:24:20.016Z,21.60
2022-12-14T08:29:21.800Z,16.67
2022-12-14T08:34:23.661Z,16.10
2022-12-14T08:39:25.491Z,22.87
2022-12-14T08:44:27.247Z,15.77
2022-12-14T08:49:32.203Z,19.07
2022-12-14T08:54:34.514Z,19.52
2022-12-14T09:00:00.866Z,20.87
2022-12-14T09:04:58.021Z,19.27
2022-12-14T09:09:59.847Z,21.77
2022-12-14T09:15:01.670Z,18.90
2022-12-14T09:20:04.425Z,14.17
2022-12-14T09:25:06.792Z,20.70
2022-12-14T09:30:08.993Z,21.80
2022-12-14T09:35:10.858Z,18.55
2022-12-14T09:40:13.330Z,14.17
2022-12-14T09:45:26.589Z,17.85
2022-12-14T09:50:28.600Z,18.42
2022-12-14T09:55:33.518Z,17.08
2022-12-14T10:00:38.063Z,16.33
2022-12-14T10:05:59.607Z,16.85
2022-12-14T10:11:06.710Z,17.13
2022-12-14T10:16:39.459Z,16.13
2022-12-14T10:22:00.859Z,15.73
2022-12-14T10:27:02.684Z,12.38
2022-12-14T10:32:21.558Z,13.53
2022-12-14T10:37:32.027Z,12.20
2022-12-14T10:42:51.846Z,13.57
2022-12-14T10:48:21.629Z,12.48
2022-12-14T10:53:28.331Z,10.55
2022-12-14T10:58:30.468Z,10.52
2022-12-14T11:03:32.627Z,8.20
2022-12-14T11:08:48.103Z,6.57
2022-12-14T11:13:54.733Z,5.72
2022-12-14T11:18:58.670Z,5.68
2022-12-14T11:24:00.656Z,3.97
2022-12-14T11:29:03.856Z,2.60
2022-12-14T11:34:06.921Z,3.20
2022-12-14T11:39:14.685Z,4.75
2022-12-14T11:44:16.330Z,4.05
2022-12-14T11:49:56.535Z,2.85
2022-12-14T11:55:01.051Z,3.20
2022-12-14T12:00:07.855Z,2.97
2022-12-14T12:05:15.035Z,2.97
2022-12-14T12:10:24.281Z,3.78
2022-12-14T12:15:30.722Z,2.70
2022-12-14T12:20:37.398Z,3.95
2022-12-14T12:25:39.505Z,2.72
2022-12-14T12:30:43.380Z,3.40
2022-12-14T12:35:54.067Z,3.53
2022-12-14T12:40:58.778Z,2.97
2022-12-14T12:46:02.806Z,2.60
2022-12-14T12:51:07.198Z,4.30
2022-12-14T12:56:27.268Z,3.47
2022-12-14T13:01:37.979Z,3.30
2022-12-14T13:06:42.658Z,3.65
2022-12-14T13:11:44.951Z,5.90
2022-12-14T13:16:46.845Z,3.35
2022-12-14T13:21:50.762Z,3.22
2022-12-14T13:27:02.817Z,5.07
2022-12-14T13:32:37.749Z,8.77
2022-12-14T13:37:54.796Z,37.90
2022-12-14T13:43:24.186Z,6.43
2022-12-14T13:48:27.306Z,4.72
2022-12-14T13:53:48.148Z,4.40
2022-12-14T13:58:50.771Z,6.80
2022-12-14T14:08:55.657Z,7.82
2022-12-14T14:13:59.313Z,5.80
2022-12-14T14:19:02.051Z,4.20
2022-12-14T14:24:13.166Z,6.18
2022-12-14T14:29:23.105Z,5.80
2022-12-14T14:34:36.394Z,5.85
2022-12-14T14:39:56.681Z,6.25
2022-12-14T14:45:01.720Z,7.93
2022-12-14T14:50:15.942Z,8.73
2022-12-14T14:55:52.059Z,8.45
2022-12-14T15:01:01.995Z,5.20
2022-12-14T15:06:04.018Z,4.95
2022-12-14T15:11:11.799Z,4.18
2022-12-14T15:16:34.164Z,4.43
2022-12-14T15:21:36.117Z,5.70
2022-12-14T15:26:39.967Z,6.65
2022-12-14T15:31:42.090Z,7.00
2022-12-14T15:36:44.006Z,7.25
2022-12-14T15:41:45.753Z,8.70
2022-12-14T15:46:54.157Z,6.70
2022-12-14T15:51:56.085Z,7.13
2022-12-14T15:56:58.577Z,6.57
2022-12-14T16:07:18.362Z,5.78
2022-12-14T16:12:25.580Z,5.82
2022-12-14T16:17:31.525Z,8.15
2022-12-14T16:22:33.396Z,5.47
2022-12-14T16:27:46.801Z,6.03
2022-12-14T16:32:54.278Z,8.25
2022-12-14T16:38:05.443Z,5.50
2022-12-14T16:43:08.031Z,6.38
2022-12-14T16:53:22.263Z,5.80
2022-12-14T16:58:24.145Z,6.78
2022-12-14T17:03:26.050Z,5.23
2022-12-14T17:08:28.106Z,5.13
2022-12-14T17:13:30.401Z,7.45
2022-12-14T17:18:34.996Z,7.10
2022-12-14T17:23:38.990Z,3.70
2022-12-14T17:28:40.853Z,6.60
2022-12-14T17:33:42.827Z,4.67
2022-12-14T17:38:44.741Z,4.43
2022-12-14T17:43:51.114Z,6.43
2022-12-14T17:49:04.518Z,5.82
2022-12-14T17:54:18.205Z,4.82
2022-12-14T17:59:20.626Z,5.15
2022-12-14T18:04:22.574Z,4.33
2022-12-14T18:09:24.433Z,6.82
2022-12-14T18:14:26.409Z,5.17
2022-12-14T18:19:28.278Z,6.30
2022-12-14T18:24:30.135Z,5.40
2022-12-14T18:29:32.394Z,3.20
2022-12-14T18:34:34.319Z,5.03
2022-12-14T18:39:36.174Z,3.58
2022-12-14T18:44:38.110Z,5.20
2022-12-14T18:49:39.916Z,4.90
2022-12-14T18:54:41.765Z,4.87
2022-12-14T18:59:43.640Z,4.83
2022-12-14T19:04:49.186Z,3.97
2022-12-14T19:09:51.111Z,4.95
2022-12-14T19:14:52.979Z,5.75
2022-12-14T19:19:54.780Z,5.57
2022-12-14T19:24:56.693Z,4.43
2022-12-14T19:29:58.559Z,6.03
2022-12-14T19:35:00.445Z,4.65
2022-12-14T19:40:02.301Z,6.88
2022-12-14T19:45:05.563Z,6.97
2022-12-14T19:50:07.788Z,5.05
2022-12-14T19:55:10.200Z,4.53
2022-12-14T20:05:13.937Z,5.88
2022-12-14T20:10:15.880Z,9.80
2022-12-14T20:15:17.918Z,5.90
2022-12-14T20:20:19.819Z,5.40
2022-12-14T20:25:21.691Z,4.13
2022-12-14T20:30:23.575Z,6.83
2022-12-14T20:35:25.445Z,4.13
2022-12-14T20:40:27.294Z,7.93
2022-12-14T20:45:29.199Z,5.38
2022-12-14T20:50:31.313Z,5.03
2022-12-14T20:55:33.542Z,4.22
2022-12-14T21:00:36.906Z,3.70
2022-12-14T21:05:41.946Z,8.27
2022-12-14T21:10:43.873Z,5.72
2022-12-14T21:15:45.716Z,5.93
2022-12-14T21:20:47.552Z,4.80
2022-12-14T21:25:51.236Z,6.97
2022-12-14T21:30:53.076Z,5.18
2022-12-14T21:35:54.905Z,5.20
2022-12-14T21:40:56.697Z,4.67
2022-12-14T21:45:58.714Z,8.00
2022-12-14T21:51:06.573Z,5.55
2022-12-14T21:56:09.156Z,5.97
2022-12-14T22:01:11.096Z,8.52
2022-12-14T22:06:13.088Z,11.57
2022-12-14T22:11:14.945Z,4.10
2022-12-14T22:16:16.767Z,7.00
2022-12-14T22:21:18.620Z,10.03
2022-12-14T22:26:20.447Z,6.82
2022-12-14T22:31:22.336Z,6.70
2022-12-14T22:36:24.537Z,6.82
2022-12-14T22:41:26.481Z,6.15
2022-12-14T22:46:28.499Z,5.45
2022-12-14T22:51:30.503Z,10.25
2022-12-14T22:56:41.296Z,4.13
2022-12-14T23:01:43.459Z,6.15
2022-12-14T23:06:51.632Z,8.07
2022-12-14T23:11:53.414Z,9.77
2022-12-14T23:16:55.321Z,8.53
2022-12-14T23:21:57.378Z,6.70
2022-12-14T23:27:01.887Z,5.85
2022-12-14T23:32:07.591Z,6.50
2022-12-14T23:37:09.497Z,6.18
2022-12-14T23:42:11.460Z,5.88
2022-12-14T23:47:13.343Z,6.82
2022-12-14T23:52:15.199Z,7.23
2022-12-14T23:57:17.202Z,5.68
